sensor_id;sensor_type;location;lat;lon;timestamp;pressure;altitude;pressure_sealevel;temperature;humidity
21300;BME280;10809;49.476;11.016;2022-09-09T00:00:49;97937.31;;;17.16;54.03
21300;BME280;10809;49.476;11.016;2022-09-09T00:03:33;97936.63;;;17.14;54.23
21300;BME280;10809;49.476;11.016;2022-09-09T00:06:21;97933.19;;;17.12;54.10
21300;BME280;10809;49.476;11.016;2022-09-09T00:09:04;97926.16;;;17.11;53.97
21300;BME280;10809;49.476;11.016;2022-09-09T00:14:30;97921.19;;;17.07;54.10
21300;BME280;10809;49.476;11.016;2022-09-09T00:17:09;97925.84;;;17.05;54.32
21300;BME280;10809;49.476;11.016;2022-09-09T00:22:51;97918.06;;;17.02;54.36
21300;BME280;10809;49.476;11.016;2022-09-09T00:25:29;97924.53;;;16.99;54.51
21300;BME280;10809;49.476;11.016;2022-09-09T00:28:15;97917.63;;;16.97;54.56
21300;BME280;10809;49.476;11.016;2022-09-09T00:30:48;97920.44;;;16.95;54.69
21300;BME280;10809;49.476;11.016;2022-09-09T00:33:24;97913.53;;;16.93;54.69
21300;BME280;10809;49.476;11.016;2022-09-09T00:35:57;97913.66;;;16.91;54.71
21300;BME280;10809;49.476;11.016;2022-09-09T00:38:37;97918.16;;;16.91;54.48
21300;BME280;10809;49.476;11.016;2022-09-09T00:41:19;97917.31;;;16.90;54.66
21300;BME280;10809;49.476;11.016;2022-09-09T00:44:03;97916.63;;;16.88;54.72
21300;BME280;10809;49.476;11.016;2022-09-09T00:49:42;97918.44;;;16.88;54.71
21300;BME280;10809;49.476;11.016;2022-09-09T00:52:32;97909.81;;;16.84;54.57
21300;BME280;10809;49.476;11.016;2022-09-09T00:55:18;97915.16;;;16.84;54.92
21300;BME280;10809;49.476;11.016;2022-09-09T00:57:52;97916.16;;;16.83;54.81
21300;BME280;10809;49.476;11.016;2022-09-09T01:03:33;97915.56;;;16.80;54.87
21300;BME280;10809;49.476;11.016;2022-09-09T01:17:21;97918.34;;;16.69;54.96
21300;BME280;10809;49.476;11.016;2022-09-09T01:20:12;97921.16;;;16.67;55.00
21300;BME280;10809;49.476;11.016;2022-09-09T01:26:30;97923.22;;;16.64;54.95
21300;BME280;10809;49.476;11.016;2022-09-09T01:29:08;97926.03;;;16.62;55.21
21300;BME280;10809;49.476;11.016;2022-09-09T01:32:42;97921.94;;;16.58;55.00
21300;BME280;10809;49.476;11.016;2022-09-09T01:35:33;97924.63;;;16.58;55.03
21300;BME280;10809;49.476;11.016;2022-09-09T01:38:07;97926.56;;;16.56;55.33
21300;BME280;10809;49.476;11.016;2022-09-09T01:40:38;97920.50;;;16.54;55.48
21300;BME280;10809;49.476;11.016;2022-09-09T01:43:10;97916.28;;;16.52;55.22
21300;BME280;10809;49.476;11.016;2022-09-09T01:45:42;97921.75;;;16.50;55.49
21300;BME280;10809;49.476;11.016;2022-09-09T01:48:14;97920.03;;;16.49;55.69
21300;BME280;10809;49.476;11.016;2022-09-09T01:50:48;97916.66;;;16.47;55.48
21300;BME280;10809;49.476;11.016;2022-09-09T01:53:20;97911.31;;;16.47;55.59
21300;BME280;10809;49.476;11.016;2022-09-09T01:56:16;97916.66;;;16.47;55.62
21300;BME280;10809;49.476;11.016;2022-09-09T02:01:43;97915.81;;;16.47;55.40
21300;BME280;10809;49.476;11.016;2022-09-09T02:04:35;97909.59;;;16.46;55.35
21300;BME280;10809;49.476;11.016;2022-09-09T02:07:43;97913.25;;;16.45;55.47
21300;BME280;10809;49.476;11.016;2022-09-09T02:10:38;97910.47;;;16.47;55.62
21300;BME280;10809;49.476;11.016;2022-09-09T02:13:20;97912.28;;;16.46;55.77
21300;BME280;10809;49.476;11.016;2022-09-09T02:16:00;97914.94;;;16.46;55.73
21300;BME280;10809;49.476;11.016;2022-09-09T02:18:47;97916.78;;;16.46;55.56
21300;BME280;10809;49.476;11.016;2022-09-09T02:21:21;97912.28;;;16.46;56.19
21300;BME280;10809;49.476;11.016;2022-09-09T02:23:52;97909.59;;;16.46;55.94
21300;BME280;10809;49.476;11.016;2022-09-09T02:26:23;97911.31;;;16.47;56.20
21300;BME280;10809;49.476;11.016;2022-09-09T02:29:01;97904.25;;;16.46;56.05
21300;BME280;10809;49.476;11.016;2022-09-09T02:31:33;97898.91;;;16.46;56.18
21300;BME280;10809;49.476;11.016;2022-09-09T02:34:10;97899.91;;;16.45;56.15
21300;BME280;10809;49.476;11.016;2022-09-09T02:36:43;97889.34;;;16.43;56.02
21300;BME280;10809;49.476;11.016;2022-09-09T02:39:16;97899.19;;;16.43;55.86
21300;BME280;10809;49.476;11.016;2022-09-09T02:41:47;97901.97;;;16.41;56.36
21300;BME280;10809;49.476;11.016;2022-09-09T02:44:18;97896.75;;;16.40;56.05
21300;BME280;10809;49.476;11.016;2022-09-09T02:49:46;97915.47;;;16.40;55.98
21300;BME280;10809;49.476;11.016;2022-09-09T02:52:32;97910.13;;;16.40;56.19
21300;BME280;10809;49.476;11.016;2022-09-09T02:55:38;97905.78;;;16.39;55.80
21300;BME280;10809;49.476;11.016;2022-09-09T02:58:11;97902.25;;;16.38;55.90
21300;BME280;10809;49.476;11.016;2022-09-09T03:00:49;97898.88;;;16.36;55.98
21300;BME280;10809;49.476;11.016;2022-09-09T03:03:19;97900.81;;;16.34;56.13
21300;BME280;10809;49.476;11.016;2022-09-09T03:05:53;97912.63;;;16.32;56.20
21300;BME280;10809;49.476;11.016;2022-09-09T03:08:24;97918.94;;;16.31;56.24
21300;BME280;10809;49.476;11.016;2022-09-09T03:10:54;97907.53;;;16.29;56.56
21300;BME280;10809;49.476;11.016;2022-09-09T03:13:25;97910.34;;;16.27;56.55
21300;BME280;10809;49.476;11.016;2022-09-09T03:15:56;97904.16;;;16.27;56.61
21300;BME280;10809;49.476;11.016;2022-09-09T03:18:27;97911.41;;;16.25;56.73
21300;BME280;10809;49.476;11.016;2022-09-09T03:21:00;97906.19;;;16.23;56.56
21300;BME280;10809;49.476;11.016;2022-09-09T03:23:31;97908.03;;;16.23;56.54
21300;BME280;10809;49.476;11.016;2022-09-09T03:26:05;97901.97;;;16.21;56.55
21300;BME280;10809;49.476;11.016;2022-09-09T03:28:43;97902.94;;;16.20;56.62
21300;BME280;10809;49.476;11.016;2022-09-09T03:31:15;97898.56;;;16.19;56.47
21300;BME280;10809;49.476;11.016;2022-09-09T03:33:47;97903.22;;;16.17;56.59
21300;BME280;10809;49.476;11.016;2022-09-09T03:36:20;97895.31;;;16.15;56.57
21300;BME280;10809;49.476;11.016;2022-09-09T03:38:50;97898.13;;;16.14;56.66
21300;BME280;10809;49.476;11.016;2022-09-09T03:41:22;97898.13;;;16.14;56.86
21300;BME280;10809;49.476;11.016;2022-09-09T03:43:55;97907.09;;;16.13;56.95
21300;BME280;10809;49.476;11.016;2022-09-09T03:46:28;97890.25;;;16.12;56.75
21300;BME280;10809;49.476;11.016;2022-09-09T03:48:59;97901.88;;;16.11;56.78
21300;BME280;10809;49.476;11.016;2022-09-09T03:51:29;97898.38;;;16.11;56.93
21300;BME280;10809;49.476;11.016;2022-09-09T03:54:00;97903.72;;;16.11;56.89
21300;BME280;10809;49.476;11.016;2022-09-09T03:56:32;97903.72;;;16.11;57.04
21300;BME280;10809;49.476;11.016;2022-09-09T03:59:03;97891.34;;;16.10;57.07
21300;BME280;10809;49.476;11.016;2022-09-09T04:01:36;97892.31;;;16.09;57.11
21300;BME280;10809;49.476;11.016;2022-09-09T04:04:06;97886.00;;;16.10;57.10
21300;BME280;10809;49.476;11.016;2022-09-09T04:06:37;97892.31;;;16.09;57.22
21300;BME280;10809;49.476;11.016;2022-09-09T04:09:08;97896.81;;;16.08;57.05
21300;BME280;10809;49.476;11.016;2022-09-09T04:11:39;97899.47;;;16.08;57.43
21300;BME280;10809;49.476;11.016;2022-09-09T04:14:09;97899.47;;;16.08;57.40
21300;BME280;10809;49.476;11.016;2022-09-09T04:16:40;97895.97;;;16.08;57.22
21300;BME280;10809;49.476;11.016;2022-09-09T04:19:14;97882.63;;;16.08;57.14
21300;BME280;10809;49.476;11.016;2022-09-09T04:21:46;97894.25;;;16.07;57.43
21300;BME280;10809;49.476;11.016;2022-09-09T04:24:20;97893.44;;;16.06;57.29
21300;BME280;10809;49.476;11.016;2022-09-09T04:26:53;97902.41;;;16.05;57.44
21300;BME280;10809;49.476;11.016;2022-09-09T04:29:25;97896.38;;;16.03;57.44
21300;BME280;10809;49.476;11.016;2022-09-09T04:31:55;97900.84;;;16.03;57.15
21300;BME280;10809;49.476;11.016;2022-09-09T04:34:25;97897.31;;;16.02;57.40
21300;BME280;10809;49.476;11.016;2022-09-09T04:36:58;97901.97;;;16.00;57.19
21300;BME280;10809;49.476;11.016;2022-09-09T04:39:29;97892.38;;;15.98;57.38
21300;BME280;10809;49.476;11.016;2022-09-09T04:41:59;97899.66;;;15.96;57.43
21300;BME280;10809;49.476;11.016;2022-09-09T04:44:30;97891.75;;;15.94;57.50
21300;BME280;10809;49.476;11.016;2022-09-09T04:47:00;97889.22;;;15.93;57.55
21300;BME280;10809;49.476;11.016;2022-09-09T04:49:31;97892.03;;;15.91;57.47
21300;BME280;10809;49.476;11.016;2022-09-09T04:52:04;97893.00;;;15.90;57.38
21300;BME280;10809;49.476;11.016;2022-09-09T04:54:37;97893.13;;;15.89;57.73
21300;BME280;10809;49.476;11.016;2022-09-09T04:57:10;97902.13;;;15.88;57.51
21300;BME280;10809;49.476;11.016;2022-09-09T04:59:40;97906.63;;;15.87;57.92
21300;BME280;10809;49.476;11.016;2022-09-09T05:02:11;97911.09;;;15.87;57.94
21300;BME280;10809;49.476;11.016;2022-09-09T05:04:42;97912.94;;;15.86;57.98
21300;BME280;10809;49.476;11.016;2022-09-09T05:07:12;97916.31;;;15.88;57.87
21300;BME280;10809;49.476;11.016;2022-09-09T05:09:45;97913.75;;;15.87;57.94
21300;BME280;10809;49.476;11.016;2022-09-09T05:12:16;97920.81;;;15.88;57.91
21300;BME280;10809;49.476;11.016;2022-09-09T05:14:54;97940.47;;;15.87;57.98
21300;BME280;10809;49.476;11.016;2022-09-09T05:17:24;97936.13;;;15.86;58.01
21300;BME280;10809;49.476;11.016;2022-09-09T05:19:55;97941.31;;;15.87;57.97
21300;BME280;10809;49.476;11.016;2022-09-09T05:22:25;97948.47;;;15.87;58.01
21300;BME280;10809;49.476;11.016;2022-09-09T05:24:57;97931.63;;;15.86;58.10
21300;BME280;10809;49.476;11.016;2022-09-09T05:27:29;97936.97;;;15.86;58.10
21300;BME280;10809;49.476;11.016;2022-09-09T05:30:05;97938.78;;;15.86;58.18
21300;BME280;10809;49.476;11.016;2022-09-09T05:32:36;97940.59;;;15.85;58.23
21300;BME280;10809;49.476;11.016;2022-09-09T05:35:07;97942.44;;;15.85;58.21
21300;BME280;10809;49.476;11.016;2022-09-09T05:37:38;97935.38;;;15.84;58.47
21300;BME280;10809;49.476;11.016;2022-09-09T05:40:08;97941.56;;;15.84;58.32
21300;BME280;10809;49.476;11.016;2022-09-09T05:42:40;97945.09;;;15.85;58.20
21300;BME280;10809;49.476;11.016;2022-09-09T05:45:11;97944.25;;;15.84;58.21
21300;BME280;10809;49.476;11.016;2022-09-09T05:47:42;97941.44;;;15.86;58.38
21300;BME280;10809;49.476;11.016;2022-09-09T05:50:17;97957.47;;;15.86;58.48
21300;BME280;10809;49.476;11.016;2022-09-09T05:52:48;97952.00;;;15.87;58.33
21300;BME280;10809;49.476;11.016;2022-09-09T05:55:20;97953.81;;;15.87;58.30
21300;BME280;10809;49.476;11.016;2022-09-09T05:57:50;97949.34;;;15.87;58.25
21300;BME280;10809;49.476;11.016;2022-09-09T06:00:21;97944.00;;;15.87;58.25
21300;BME280;10809;49.476;11.016;2022-09-09T06:02:52;97940.47;;;15.87;58.19
21300;BME280;10809;49.476;11.016;2022-09-09T06:05:24;97938.78;;;15.86;58.28
21300;BME280;10809;49.476;11.016;2022-09-09T06:07:57;97942.31;;;15.86;58.62
21300;BME280;10809;49.476;11.016;2022-09-09T06:10:28;97932.47;;;15.87;58.38
21300;BME280;10809;49.476;11.016;2022-09-09T06:12:58;97937.78;;;15.87;58.47
21300;BME280;10809;49.476;11.016;2022-09-09T06:15:29;97939.50;;;15.88;58.47
21300;BME280;10809;49.476;11.016;2022-09-09T06:18:00;97942.06;;;15.89;58.64
21300;BME280;10809;49.476;11.016;2022-09-09T06:20:31;97942.06;;;15.89;58.45
21300;BME280;10809;49.476;11.016;2022-09-09T06:23:03;97947.28;;;15.91;58.63
21300;BME280;10809;49.476;11.016;2022-09-09T06:25:34;97939.97;;;15.93;58.58
21300;BME280;10809;49.476;11.016;2022-09-09T06:28:05;97948.69;;;15.95;58.66
21300;BME280;10809;49.476;11.016;2022-09-09T06:30:35;97945.78;;;15.98;58.73
21300;BME280;10809;49.476;11.016;2022-09-09T06:33:07;97936.56;;;16.02;58.72
21300;BME280;10809;49.476;11.016;2022-09-09T06:35:37;97945.00;;;16.07;58.75
21300;BME280;10809;49.476;11.016;2022-09-09T06:38:08;97945.59;;;16.10;58.81
21300;BME280;10809;49.476;11.016;2022-09-09T06:40:38;97938.91;;;16.16;58.57
21300;BME280;10809;49.476;11.016;2022-09-09T06:43:09;97943.16;;;16.18;58.74
21300;BME280;10809;49.476;11.016;2022-09-09T06:45:53;97949.91;;;16.22;58.57
21300;BME280;10809;49.476;11.016;2022-09-09T06:48:24;97951.25;;;16.28;58.56
21300;BME280;10809;49.476;11.016;2022-09-09T06:53:36;97960.19;;;16.38;58.47
21300;BME280;10809;49.476;11.016;2022-09-09T06:58:40;97961.31;;;16.56;58.96
21300;BME280;10809;49.476;11.016;2022-09-09T07:01:20;97970.22;;;16.66;58.83
21300;BME280;10809;49.476;11.016;2022-09-09T07:03:53;97966.91;;;16.74;58.57
21300;BME280;10809;49.476;11.016;2022-09-09T07:06:27;97963.56;;;16.81;58.73
21300;BME280;10809;49.476;11.016;2022-09-09T07:08:59;97974.47;;;16.89;58.52
21300;BME280;10809;49.476;11.016;2022-09-09T07:11:37;97971.25;;;16.95;57.93
21300;BME280;10809;49.476;11.016;2022-09-09T07:14:09;97973.66;;;16.98;57.90
21300;BME280;10809;49.476;11.016;2022-09-09T07:16:41;97969.03;;;17.00;57.66
21300;BME280;10809;49.476;11.016;2022-09-09T07:19:13;97967.06;;;17.02;58.13
21300;BME280;10809;49.476;11.016;2022-09-09T07:21:45;97971.31;;;17.05;57.51
21300;BME280;10809;49.476;11.016;2022-09-09T07:24:18;97980.19;;;17.05;57.50
21300;BME280;10809;49.476;11.016;2022-09-09T07:26:49;97980.88;;;17.07;57.44
21300;BME280;10809;49.476;11.016;2022-09-09T07:29:19;97976.13;;;17.11;57.60
21300;BME280;10809;49.476;11.016;2022-09-09T07:31:50;97982.94;;;17.15;57.79
21300;BME280;10809;49.476;11.016;2022-09-09T07:34:26;97986.06;;;17.20;58.20
21300;BME280;10809;49.476;11.016;2022-09-09T07:36:57;97980.75;;;17.29;58.47
21300;BME280;10809;49.476;11.016;2022-09-09T07:39:27;97977.41;;;17.46;59.04
21300;BME280;10809;49.476;11.016;2022-09-09T07:41:59;97975.25;;;17.70;59.14
21300;BME280;10809;49.476;11.016;2022-09-09T07:44:31;97978.41;;;17.94;58.64
21300;BME280;10809;49.476;11.016;2022-09-09T07:47:09;97974.06;;;18.13;57.40
21300;BME280;10809;49.476;11.016;2022-09-09T07:49:45;97974.78;;;18.24;56.61
21300;BME280;10809;49.476;11.016;2022-09-09T07:52:18;97976.06;;;18.30;56.62
21300;BME280;10809;49.476;11.016;2022-09-09T07:54:51;97975.50;;;18.36;57.00
21300;BME280;10809;49.476;11.016;2022-09-09T07:57:22;97980.97;;;18.44;56.80
21300;BME280;10809;49.476;11.016;2022-09-09T07:59:54;97978.28;;;18.53;57.27
21300;BME280;10809;49.476;11.016;2022-09-09T08:02:26;97979.25;;;18.71;58.02
21300;BME280;10809;49.476;11.016;2022-09-09T08:04:59;97975.84;;;18.98;57.84
21300;BME280;10809;49.476;11.016;2022-09-09T08:07:30;97979.44;;;19.25;58.48
21300;BME280;10809;49.476;11.016;2022-09-09T08:10:00;97971.13;;;19.55;58.35
21300;BME280;10809;49.476;11.016;2022-09-09T08:12:35;97980.41;;;19.88;57.90
21300;BME280;10809;49.476;11.016;2022-09-09T08:15:06;97982.31;;;20.23;57.39
21300;BME280;10809;49.476;11.016;2022-09-09T08:17:37;97973.25;;;20.59;57.17
21300;BME280;10809;49.476;11.016;2022-09-09T08:20:10;97966.25;;;20.91;55.60
21300;BME280;10809;49.476;11.016;2022-09-09T08:22:42;97970.88;;;21.24;55.73
21300;BME280;10809;49.476;11.016;2022-09-09T08:25:14;97969.34;;;21.56;55.22
21300;BME280;10809;49.476;11.016;2022-09-09T08:27:45;97961.91;;;21.83;53.60
21300;BME280;10809;49.476;11.016;2022-09-09T08:30:15;97964.13;;;22.04;52.45
21300;BME280;10809;49.476;11.016;2022-09-09T08:32:46;97966.88;;;22.20;52.03
21300;BME280;10809;49.476;11.016;2022-09-09T08:35:16;97961.19;;;22.31;51.49
21300;BME280;10809;49.476;11.016;2022-09-09T08:37:48;97957.50;;;22.40;51.44
21300;BME280;10809;49.476;11.016;2022-09-09T08:40:29;97952.78;;;22.50;51.57
21300;BME280;10809;49.476;11.016;2022-09-09T08:43:05;97960.72;;;22.59;50.92
21300;BME280;10809;49.476;11.016;2022-09-09T08:48:39;97964.75;;;22.71;51.12
21300;BME280;10809;49.476;11.016;2022-09-09T08:51:13;97962.91;;;22.72;49.58
21300;BME280;10809;49.476;11.016;2022-09-09T08:53:49;97964.75;;;22.71;49.55
21300;BME280;10809;49.476;11.016;2022-09-09T08:56:23;97970.31;;;22.70;49.39
21300;BME280;10809;49.476;11.016;2022-09-09T08:59:00;97962.41;;;22.68;49.32
21300;BME280;10809;49.476;11.016;2022-09-09T09:12:42;97961.72;;;22.58;48.65
21300;BME280;10809;49.476;11.016;2022-09-09T09:15:25;97970.47;;;22.52;48.77
21300;BME280;10809;49.476;11.016;2022-09-09T09:17:58;97965.59;;;22.48;48.32
21300;BME280;10809;49.476;11.016;2022-09-09T09:23:24;97970.84;;;22.41;48.64
21300;BME280;10809;49.476;11.016;2022-09-09T09:25:59;97958.66;;;22.37;48.45
21300;BME280;10809;49.476;11.016;2022-09-09T09:31:28;97961.19;;;22.31;48.08
21300;BME280;10809;49.476;11.016;2022-09-09T09:34:04;97952.91;;;22.24;47.63
21300;BME280;10809;49.476;11.016;2022-09-09T09:36:43;97951.72;;;22.19;48.56
21300;BME280;10809;49.476;11.016;2022-09-09T09:39:31;97949.31;;;22.16;48.60
21300;BME280;10809;49.476;11.016;2022-09-09T09:42:12;97942.09;;;22.16;48.98
21300;BME280;10809;49.476;11.016;2022-09-09T09:44:44;97947.16;;;22.19;48.45
21300;BME280;10809;49.476;11.016;2022-09-09T09:47:21;97944.97;;;22.23;47.76
21300;BME280;10809;49.476;11.016;2022-09-09T09:50:18;97940.91;;;22.27;48.04
21300;BME280;10809;49.476;11.016;2022-09-09T09:52:54;97939.59;;;22.31;47.68
21300;BME280;10809;49.476;11.016;2022-09-09T09:55:55;97939.75;;;22.29;47.48
21300;BME280;10809;49.476;11.016;2022-09-09T09:58:30;97935.22;;;22.22;47.08
21300;BME280;10809;49.476;11.016;2022-09-09T12:28:20;97873.63;;;21.93;42.93
21300;BME280;10809;49.476;11.016;2022-09-09T12:31:22;97862.66;;;21.95;43.30
21300;BME280;10809;49.476;11.016;2022-09-09T12:34:05;97866.91;;;21.97;43.60
21300;BME280;10809;49.476;11.016;2022-09-09T12:36:41;97856.94;;;21.98;42.61
21300;BME280;10809;49.476;11.016;2022-09-09T12:39:32;97865.03;;;21.98;42.99
21300;BME280;10809;49.476;11.016;2022-09-09T12:42:03;97867.06;;;21.96;42.49
21300;BME280;10809;49.476;11.016;2022-09-09T12:44:34;97866.72;;;21.91;41.97
21300;BME280;10809;49.476;11.016;2022-09-09T12:47:04;97871.94;;;21.84;42.14
21300;BME280;10809;49.476;11.016;2022-09-09T12:49:37;97877.16;;;21.78;42.83
21300;BME280;10809;49.476;11.016;2022-09-09T12:52:29;97875.28;;;21.70;42.99
21300;BME280;10809;49.476;11.016;2022-09-09T12:55:05;97880.31;;;21.65;43.22
21300;BME280;10809;49.476;11.016;2022-09-09T12:57:38;97899.81;;;21.59;42.71
21300;BME280;10809;49.476;11.016;2022-09-09T13:00:14;97928.22;;;21.53;43.06
21300;BME280;10809;49.476;11.016;2022-09-09T13:03:00;97935.44;;;21.45;43.78
21300;BME280;10809;49.476;11.016;2022-09-09T13:05:36;97936.75;;;21.33;43.76
21300;BME280;10809;49.476;11.016;2022-09-09T13:08:11;97938.34;;;21.18;43.83
21300;BME280;10809;49.476;11.016;2022-09-09T13:11:00;97932.53;;;21.05;44.42
21300;BME280;10809;49.476;11.016;2022-09-09T13:13:37;97914.13;;;20.92;44.84
21300;BME280;10809;49.476;11.016;2022-09-09T13:16:22;97895.00;;;20.78;45.21
21300;BME280;10809;49.476;11.016;2022-09-09T13:18:55;97888.91;;;20.68;45.83
21300;BME280;10809;49.476;11.016;2022-09-09T13:21:49;97887.16;;;20.59;46.40
21300;BME280;10809;49.476;11.016;2022-09-09T13:28:23;97881.13;;;20.65;46.95
21300;BME280;10809;49.476;11.016;2022-09-09T13:30:59;97889.44;;;20.71;47.00
21300;BME280;10809;49.476;11.016;2022-09-09T13:33:36;97891.50;;;20.77;47.10
21300;BME280;10809;49.476;11.016;2022-09-09T13:36:09;97886.28;;;20.84;46.77
21300;BME280;10809;49.476;11.016;2022-09-09T13:38:55;97883.13;;;20.88;46.78
21300;BME280;10809;49.476;11.016;2022-09-09T13:41:44;97870.03;;;20.93;46.78
21300;BME280;10809;49.476;11.016;2022-09-09T13:44:21;97863.34;;;20.97;46.44
21300;BME280;10809;49.476;11.016;2022-09-09T13:47:18;97854.94;;;21.00;46.21
21300;BME280;10809;49.476;11.016;2022-09-09T13:49:50;97856.66;;;21.01;45.76
21300;BME280;10809;49.476;11.016;2022-09-09T13:52:20;97857.47;;;21.02;46.02
21300;BME280;10809;49.476;11.016;2022-09-09T13:54:52;97854.13;;;21.00;46.42
21300;BME280;10809;49.476;11.016;2022-09-09T13:57:25;97853.28;;;20.99;46.42
21300;BME280;10809;49.476;11.016;2022-09-09T13:59:55;97859.84;;;20.97;46.37
21300;BME280;10809;49.476;11.016;2022-09-09T14:02:26;97861.69;;;20.96;46.01
21300;BME280;10809;49.476;11.016;2022-09-09T14:04:56;97852.88;;;20.94;46.50
21300;BME280;10809;49.476;11.016;2022-09-09T14:07:27;97853.72;;;20.95;46.78
21300;BME280;10809;49.476;11.016;2022-09-09T14:09:57;97849.34;;;20.94;47.13
21300;BME280;10809;49.476;11.016;2022-09-09T14:12:27;97847.50;;;20.94;46.78
21300;BME280;10809;49.476;11.016;2022-09-09T14:14:58;97844.78;;;20.94;46.98
21300;BME280;10809;49.476;11.016;2022-09-09T14:17:30;97857.31;;;20.95;46.92
21300;BME280;10809;49.476;11.016;2022-09-09T14:20:03;97854.75;;;20.94;46.55
21300;BME280;10809;49.476;11.016;2022-09-09T14:22:39;97860.00;;;20.95;47.11
21300;BME280;10809;49.476;11.016;2022-09-09T14:25:09;97855.28;;;20.97;46.76
21300;BME280;10809;49.476;11.016;2022-09-09T14:27:40;97858.81;;;20.98;46.95
21300;BME280;10809;49.476;11.016;2022-09-09T14:30:12;97856.13;;;20.98;46.64
21300;BME280;10809;49.476;11.016;2022-09-09T14:32:42;97867.91;;;20.97;46.56
21300;BME280;10809;49.476;11.016;2022-09-09T14:35:13;97874.41;;;20.94;47.09
21300;BME280;10809;49.476;11.016;2022-09-09T14:37:43;97877.94;;;20.95;47.13
21300;BME280;10809;49.476;11.016;2022-09-09T14:40:14;97887.03;;;20.94;47.27
21300;BME280;10809;49.476;11.016;2022-09-09T14:42:45;97894.25;;;20.93;47.89
21300;BME280;10809;49.476;11.016;2022-09-09T14:45:15;97894.41;;;20.92;47.88
21300;BME280;10809;49.476;11.016;2022-09-09T14:47:46;97895.28;;;20.92;47.65
21300;BME280;10809;49.476;11.016;2022-09-09T14:50:17;97897.28;;;20.90;47.81
21300;BME280;10809;49.476;11.016;2022-09-09T14:52:47;97896.41;;;20.90;47.67
21300;BME280;10809;49.476;11.016;2022-09-09T14:55:18;97890.38;;;20.88;47.76
21300;BME280;10809;49.476;11.016;2022-09-09T14:57:49;97898.28;;;20.89;47.76
21300;BME280;10809;49.476;11.016;2022-09-09T15:00:20;97902.66;;;20.90;48.04
21300;BME280;10809;49.476;11.016;2022-09-09T15:02:54;97898.94;;;20.91;47.82
21300;BME280;10809;49.476;11.016;2022-09-09T15:05:25;97891.56;;;20.93;47.91
21300;BME280;10809;49.476;11.016;2022-09-09T15:07:55;97889.44;;;20.97;47.98
21300;BME280;10809;49.476;11.016;2022-09-09T15:10:26;97880.56;;;21.04;48.00
21300;BME280;10809;49.476;11.016;2022-09-09T15:12:57;97858.53;;;21.09;47.37
21300;BME280;10809;49.476;11.016;2022-09-09T15:15:28;97873.19;;;21.14;48.03
21300;BME280;10809;49.476;11.016;2022-09-09T15:18:02;97869.03;;;21.20;47.69
21300;BME280;10809;49.476;11.016;2022-09-09T15:20:53;97864.47;;;21.20;46.96
21300;BME280;10809;49.476;11.016;2022-09-09T15:23:23;97858.09;;;21.21;46.67
21300;BME280;10809;49.476;11.016;2022-09-09T15:25:55;97852.19;;;21.18;46.87
21300;BME280;10809;49.476;11.016;2022-09-09T15:28:28;97847.28;;;21.13;46.82
21300;BME280;10809;49.476;11.016;2022-09-09T15:31:05;97850.47;;;21.09;46.79
21300;BME280;10809;49.476;11.016;2022-09-09T15:33:37;97847.25;;;21.05;46.93
21300;BME280;10809;49.476;11.016;2022-09-09T15:36:16;97852.09;;;21.02;46.79
21300;BME280;10809;49.476;11.016;2022-09-09T15:38:47;97854.13;;;21.00;47.25
21300;BME280;10809;49.476;11.016;2022-09-09T15:41:19;97855.28;;;20.97;46.59
21300;BME280;10809;49.476;11.016;2022-09-09T15:43:54;97850.06;;;20.96;46.61
21300;BME280;10809;49.476;11.016;2022-09-09T15:46:45;97851.75;;;20.97;46.75
21300;BME280;10809;49.476;11.016;2022-09-09T15:49:27;97847.19;;;20.97;46.43
21300;BME280;10809;49.476;11.016;2022-09-09T15:51:59;97843.34;;;21.00;46.58
21300;BME280;10809;49.476;11.016;2022-09-09T15:54:35;97840.34;;;21.03;46.37
21300;BME280;10809;49.476;11.016;2022-09-09T15:57:28;97837.50;;;21.04;46.41
21300;BME280;10809;49.476;11.016;2022-09-09T16:00:06;97836.47;;;21.05;45.85
21300;BME280;10809;49.476;11.016;2022-09-09T16:02:37;97836.47;;;21.05;45.51
21300;BME280;10809;49.476;11.016;2022-09-09T16:05:09;97833.09;;;21.03;45.28
21300;BME280;10809;49.476;11.016;2022-09-09T16:07:40;97844.88;;;21.02;45.07
21300;BME280;10809;49.476;11.016;2022-09-09T16:10:12;97846.88;;;21.00;44.89
21300;BME280;10809;49.476;11.016;2022-09-09T16:12:44;97845.34;;;20.98;44.64
21300;BME280;10809;49.476;11.016;2022-09-09T16:15:14;97850.06;;;20.96;44.12
21300;BME280;10809;49.476;11.016;2022-09-09T16:17:45;97853.88;;;20.93;44.17
21300;BME280;10809;49.476;11.016;2022-09-09T16:20:16;97857.59;;;20.92;44.30
21300;BME280;10809;49.476;11.016;2022-09-09T16:22:46;97861.25;;;20.91;44.42
21300;BME280;10809;49.476;11.016;2022-09-09T16:25:17;97863.78;;;20.93;44.09
21300;BME280;10809;49.476;11.016;2022-09-09T16:27:53;97872.72;;;20.93;44.06
21300;BME280;10809;49.476;11.016;2022-09-09T16:30:25;97875.25;;;20.95;44.39
21300;BME280;10809;49.476;11.016;2022-09-09T16:32:56;97875.13;;;20.96;44.52
21300;BME280;10809;49.476;11.016;2022-09-09T16:35:26;97870.44;;;20.98;44.14
21300;BME280;10809;49.476;11.016;2022-09-09T16:37:56;97866.56;;;21.01;44.57
21300;BME280;10809;49.476;11.016;2022-09-09T16:40:27;97877.19;;;21.02;44.41
21300;BME280;10809;49.476;11.016;2022-09-09T16:42:57;97873.47;;;21.03;44.38
21300;BME280;10809;49.476;11.016;2022-09-09T16:45:28;97872.50;;;21.04;44.10
21300;BME280;10809;49.476;11.016;2022-09-09T16:47:59;97882.25;;;21.05;43.77
21300;BME280;10809;49.476;11.016;2022-09-09T16:50:34;97886.78;;;21.05;44.12
21300;BME280;10809;49.476;11.016;2022-09-09T16:53:05;97894.03;;;21.04;44.05
21300;BME280;10809;49.476;11.016;2022-09-09T16:55:40;97899.41;;;21.04;44.00
21300;BME280;10809;49.476;11.016;2022-09-09T16:58:11;97902.28;;;21.03;44.13